sensor_id;sensor_type;location;lat;lon;timestamp;pressure;altitude;pressure_sealevel;temperature;humidity
55759;BME280;41678;52.126;20.664;2022-11-20T00:01:26;100177.31;;;-4.52;85.60
55759;BME280;41678;52.126;20.664;2022-11-20T00:06:46;100194.56;;;-4.49;85.49
55759;BME280;41678;52.126;20.664;2022-11-20T00:12:06;100190.81;;;-4.56;85.71
55759;BME280;41678;52.126;20.664;2022-11-20T00:17:26;100187.28;;;-4.58;85.99
55759;BME280;41678;52.126;20.664;2022-11-20T00:22:45;100188.19;;;-4.58;85.80
55759;BME280;41678;52.126;20.664;2022-11-20T00:28:05;100186.78;;;-4.51;85.70
55759;BME280;41678;52.126;20.664;2022-11-20T00:33:25;100177.00;;;-4.58;86.18
55759;BME280;41678;52.126;20.664;2022-11-20T00:38:44;100183.47;;;-4.48;86.14
55759;BME280;41678;52.126;20.664;2022-11-20T00:44:04;100174.97;;;-4.47;86.20
55759;BME280;41678;52.126;20.664;2022-11-20T00:49:24;100175.16;;;-4.43;85.98
55759;BME280;41678;52.126;20.664;2022-11-20T00:54:43;100163.25;;;-4.41;86.26
55759;BME280;41678;52.126;20.664;2022-11-20T01:00:03;100151.31;;;-4.40;85.82
55759;BME280;41678;52.126;20.664;2022-11-20T01:05:23;100160.84;;;-4.37;85.94
55759;BME280;41678;52.126;20.664;2022-11-20T01:10:43;100146.16;;;-4.40;86.26
55759;BME280;41678;52.126;20.664;2022-11-20T01:16:06;100145.56;;;-4.34;86.38
55759;BME280;41678;52.126;20.664;2022-11-20T01:21:32;100138.81;;;-4.32;86.18
55759;BME280;41678;52.126;20.664;2022-11-20T01:26:52;100137.19;;;-4.30;86.03
55759;BME280;41678;52.126;20.664;2022-11-20T01:32:13;100142.47;;;-4.27;85.88
55759;BME280;41678;52.126;20.664;2022-11-20T01:37:32;100139.84;;;-4.29;86.26
55759;BME280;41678;52.126;20.664;2022-11-20T01:43:01;100148.53;;;-4.25;86.16
55759;BME280;41678;52.126;20.664;2022-11-20T01:49:01;100148.75;;;-4.20;85.89
55759;BME280;41678;52.126;20.664;2022-11-20T01:54:26;100141.81;;;-4.23;85.93
55759;BME280;41678;52.126;20.664;2022-11-20T01:59:53;100150.38;;;-4.22;86.19
55759;BME280;41678;52.126;20.664;2022-11-20T02:05:25;100168.59;;;-4.18;86.24
55759;BME280;41678;52.126;20.664;2022-11-20T02:10:46;100149.66;;;-4.20;85.95
55759;BME280;41678;52.126;20.664;2022-11-20T02:16:13;100151.47;;;-4.17;85.81
55759;BME280;41678;52.126;20.664;2022-11-20T02:21:37;100141.25;;;-4.16;85.65
55759;BME280;41678;52.126;20.664;2022-11-20T02:32:28;100135.38;;;-4.13;85.59
55759;BME280;41678;52.126;20.664;2022-11-20T02:37:49;100130.66;;;-4.04;85.51
55759;BME280;41678;52.126;20.664;2022-11-20T02:43:10;100136.69;;;-4.03;85.89
55759;BME280;41678;52.126;20.664;2022-11-20T02:48:30;100126.25;;;-4.06;85.62
55759;BME280;41678;52.126;20.664;2022-11-20T02:53:49;100127.34;;;-4.01;85.63
55759;BME280;41678;52.126;20.664;2022-11-20T02:59:09;100121.25;;;-4.03;86.11
55759;BME280;41678;52.126;20.664;2022-11-20T03:04:29;100112.59;;;-4.05;86.07
55759;BME280;41678;52.126;20.664;2022-11-20T03:09:48;100110.84;;;-4.06;85.99
55759;BME280;41678;52.126;20.664;2022-11-20T03:15:09;100101.19;;;-4.10;85.93
55759;BME280;41678;52.126;20.664;2022-11-20T03:20:29;100113.19;;;-4.11;85.65
55759;BME280;41678;52.126;20.664;2022-11-20T03:25:48;100114.06;;;-4.10;86.15
55759;BME280;41678;52.126;20.664;2022-11-20T03:31:13;100112.59;;;-4.05;86.00
55759;BME280;41678;52.126;20.664;2022-11-20T03:36:33;100111.69;;;-4.06;85.82
55759;BME280;41678;52.126;20.664;2022-11-20T03:41:52;100115.69;;;-4.13;86.19
55759;BME280;41678;52.126;20.664;2022-11-20T03:47:12;100122.41;;;-4.16;85.72
55759;BME280;41678;52.126;20.664;2022-11-20T03:52:31;100112.16;;;-4.15;85.91
55759;BME280;41678;52.126;20.664;2022-11-20T03:57:51;100116.28;;;-4.18;86.39
55759;BME280;41678;52.126;20.664;2022-11-20T04:03:10;100124.69;;;-4.22;86.17
55759;BME280;41678;52.126;20.664;2022-11-20T04:08:30;100133.78;;;-4.29;85.75
55759;BME280;41678;52.126;20.664;2022-11-20T04:13:52;100125.88;;;-4.34;85.69
55759;BME280;41678;52.126;20.664;2022-11-20T04:19:13;100130.16;;;-4.34;85.95
55759;BME280;41678;52.126;20.664;2022-11-20T04:24:33;100128.25;;;-4.38;85.73
55759;BME280;41678;52.126;20.664;2022-11-20T04:29:52;100124.69;;;-4.41;86.35
55759;BME280;41678;52.126;20.664;2022-11-20T04:35:11;100121.06;;;-4.46;85.91
55759;BME280;41678;52.126;20.664;2022-11-20T04:40:31;100115.78;;;-4.49;86.10
55759;BME280;41678;52.126;20.664;2022-11-20T04:45:54;100110.84;;;-4.44;86.22
55759;BME280;41678;52.126;20.664;2022-11-20T04:51:14;100110.31;;;-4.55;85.97
55759;BME280;41678;52.126;20.664;2022-11-20T04:56:34;100105.50;;;-4.67;86.16
55759;BME280;41678;52.126;20.664;2022-11-20T05:01:54;100107.22;;;-4.67;86.67
55759;BME280;41678;52.126;20.664;2022-11-20T05:07:13;100106.69;;;-4.78;86.26
55759;BME280;41678;52.126;20.664;2022-11-20T05:12:33;100097.84;;;-4.85;86.57
55759;BME280;41678;52.126;20.664;2022-11-20T05:17:53;100102.16;;;-4.84;86.38
55759;BME280;41678;52.126;20.664;2022-11-20T05:23:13;100095.09;;;-4.88;86.30
55759;BME280;41678;52.126;20.664;2022-11-20T05:28:32;100086.56;;;-4.87;86.14
55759;BME280;41678;52.126;20.664;2022-11-20T05:33:53;100091.66;;;-4.89;86.14
55759;BME280;41678;52.126;20.664;2022-11-20T05:39:13;100082.25;;;-4.88;86.54
55759;BME280;41678;52.126;20.664;2022-11-20T05:44:33;100079.53;;;-4.91;86.29
55759;BME280;41678;52.126;20.664;2022-11-20T05:49:52;100081.03;;;-4.96;86.62
55759;BME280;41678;52.126;20.664;2022-11-20T05:55:12;100070.59;;;-5.00;86.06
55759;BME280;41678;52.126;20.664;2022-11-20T06:00:31;100067.69;;;-5.07;86.56
55759;BME280;41678;52.126;20.664;2022-11-20T06:05:51;100063.97;;;-5.13;86.16
55759;BME280;41678;52.126;20.664;2022-11-20T06:11:13;100062.22;;;-5.14;86.18
55759;BME280;41678;52.126;20.664;2022-11-20T06:16:33;100067.50;;;-5.29;86.63
55759;BME280;41678;52.126;20.664;2022-11-20T06:21:53;100062.72;;;-5.39;86.33
55759;BME280;41678;52.126;20.664;2022-11-20T06:27:13;100054.41;;;-5.51;86.16
55759;BME280;41678;52.126;20.664;2022-11-20T06:32:32;100058.97;;;-5.46;86.58
55759;BME280;41678;52.126;20.664;2022-11-20T06:37:52;100054.56;;;-5.48;86.40
55759;BME280;41678;52.126;20.664;2022-11-20T06:43:12;100046.66;;;-5.53;86.89
55759;BME280;41678;52.126;20.664;2022-11-20T06:48:31;100049.13;;;-5.55;86.83
55759;BME280;41678;52.126;20.664;2022-11-20T06:53:51;100054.41;;;-5.51;86.79
55759;BME280;41678;52.126;20.664;2022-11-20T06:59:12;100035.50;;;-5.53;86.97
55759;BME280;41678;52.126;20.664;2022-11-20T07:04:32;100041.28;;;-5.58;86.91
55759;BME280;41678;52.126;20.664;2022-11-20T07:09:51;100052.66;;;-5.52;87.05
55759;BME280;41678;52.126;20.664;2022-11-20T07:15:11;100049.28;;;-5.51;87.22
55759;BME280;41678;52.126;20.664;2022-11-20T07:20:30;100053.84;;;-5.46;87.41
55759;BME280;41678;52.126;20.664;2022-11-20T07:25:50;100058.41;;;-5.40;87.41
55759;BME280;41678;52.126;20.664;2022-11-20T07:31:09;100057.03;;;-5.33;87.24
55759;BME280;41678;52.126;20.664;2022-11-20T07:36:29;100067.06;;;-5.20;87.27
55759;BME280;41678;52.126;20.664;2022-11-20T07:41:48;100054.25;;;-5.20;87.54
55759;BME280;41678;52.126;20.664;2022-11-20T07:47:08;100035.81;;;-5.11;87.50
55759;BME280;41678;52.126;20.664;2022-11-20T07:52:28;100040.66;;;-4.99;87.39
55759;BME280;41678;52.126;20.664;2022-11-20T07:57:54;100033.53;;;-4.87;87.56
55759;BME280;41678;52.126;20.664;2022-11-20T08:03:14;100044.31;;;-4.76;87.53
55759;BME280;41678;52.126;20.664;2022-11-20T08:08:33;100025.00;;;-4.67;87.65
55759;BME280;41678;52.126;20.664;2022-11-20T08:13:53;100030.66;;;-4.55;87.70
55759;BME280;41678;52.126;20.664;2022-11-20T08:19:31;100028.81;;;-4.39;87.59
55759;BME280;41678;52.126;20.664;2022-11-20T08:24:51;100029.22;;;-4.30;87.80
55759;BME280;41678;52.126;20.664;2022-11-20T08:30:11;100009.19;;;-4.18;87.73
55759;BME280;41678;52.126;20.664;2022-11-20T08:35:35;99996.78;;;-4.07;88.20
55759;BME280;41678;52.126;20.664;2022-11-20T08:40:59;100007.81;;;-3.90;88.01
55759;BME280;41678;52.126;20.664;2022-11-20T08:46:40;99986.91;;;-3.76;87.97
55759;BME280;41678;52.126;20.664;2022-11-20T08:52:00;99987.28;;;-3.67;88.02
55759;BME280;41678;52.126;20.664;2022-11-20T08:57:19;99983.53;;;-3.54;87.91
55759;BME280;41678;52.126;20.664;2022-11-20T09:02:39;99981.28;;;-3.46;87.80
55759;BME280;41678;52.126;20.664;2022-11-20T09:07:59;99981.63;;;-3.37;87.94
55759;BME280;41678;52.126;20.664;2022-11-20T09:13:20;99987.06;;;-3.29;88.00
55759;BME280;41678;52.126;20.664;2022-11-20T09:18:39;99978.97;;;-3.17;87.98
55759;BME280;41678;52.126;20.664;2022-11-20T09:23:59;99974.03;;;-3.11;87.96
55759;BME280;41678;52.126;20.664;2022-11-20T09:29:19;99976.16;;;-3.01;88.04
55759;BME280;41678;52.126;20.664;2022-11-20T09:34:38;99961.69;;;-2.97;88.08
55759;BME280;41678;52.126;20.664;2022-11-20T09:39:58;99960.56;;;-2.81;88.40
55759;BME280;41678;52.126;20.664;2022-11-20T09:51:00;99956.91;;;-2.63;88.35
55759;BME280;41678;52.126;20.664;2022-11-20T09:56:23;99955.44;;;-2.57;88.22
55759;BME280;41678;52.126;20.664;2022-11-20T10:01:42;99949.81;;;-2.46;88.20
55759;BME280;41678;52.126;20.664;2022-11-20T10:07:17;99953.84;;;-2.29;88.01
55759;BME280;41678;52.126;20.664;2022-11-20T10:18:53;99961.03;;;-2.20;88.33
55759;BME280;41678;52.126;20.664;2022-11-20T10:24:40;99952.63;;;-2.14;88.07
55759;BME280;41678;52.126;20.664;2022-11-20T10:30:09;99946.72;;;-2.11;88.47
55759;BME280;41678;52.126;20.664;2022-11-20T10:35:38;99934.00;;;-2.05;88.10
55759;BME280;41678;52.126;20.664;2022-11-20T10:41:02;99933.28;;;-2.01;88.56
55759;BME280;41678;52.126;20.664;2022-11-20T10:46:45;99940.50;;;-1.91;88.19
55759;BME280;41678;52.126;20.664;2022-11-20T10:52:34;99930.50;;;-1.81;88.48
55759;BME280;41678;52.126;20.664;2022-11-20T10:58:13;99936.03;;;-1.69;87.45
55759;BME280;41678;52.126;20.664;2022-11-20T11:03:33;99929.13;;;-1.70;88.45
55759;BME280;41678;52.126;20.664;2022-11-20T11:08:56;99919.03;;;-1.64;88.54
55759;BME280;41678;52.126;20.664;2022-11-20T11:14:18;99913.19;;;-1.58;88.05
55759;BME280;41678;52.126;20.664;2022-11-20T11:19:37;99903.09;;;-1.50;88.37
55759;BME280;41678;52.126;20.664;2022-11-20T11:24:57;99910.94;;;-1.47;88.13
55759;BME280;41678;52.126;20.664;2022-11-20T11:30:18;99902.53;;;-1.40;88.64
55759;BME280;41678;52.126;20.664;2022-11-20T11:35:45;99902.63;;;-1.37;88.20
55759;BME280;41678;52.126;20.664;2022-11-20T11:41:08;99903.97;;;-1.21;88.24
55759;BME280;41678;52.126;20.664;2022-11-20T11:46:33;99897.94;;;-1.21;87.52
55759;BME280;41678;52.126;20.664;2022-11-20T11:52:05;99886.28;;;-1.07;87.26
55759;BME280;41678;52.126;20.664;2022-11-20T11:57:49;99884.53;;;-1.08;86.90
55759;BME280;41678;52.126;20.664;2022-11-20T12:03:35;99875.25;;;-1.01;86.86
55759;BME280;41678;52.126;20.664;2022-11-20T12:09:00;99868.53;;;-0.94;87.28
55759;BME280;41678;52.126;20.664;2022-11-20T12:14:34;99878.16;;;-0.90;86.94
55759;BME280;41678;52.126;20.664;2022-11-20T12:19:56;99870.50;;;-0.87;86.95
55759;BME280;41678;52.126;20.664;2022-11-20T12:25:22;99859.25;;;-0.88;86.98
55759;BME280;41678;52.126;20.664;2022-11-20T12:31:02;99857.63;;;-0.84;86.38
55759;BME280;41678;52.126;20.664;2022-11-20T12:47:51;99838.00;;;-0.77;86.40
55759;BME280;41678;52.126;20.664;2022-11-20T12:58:48;99824.31;;;-0.75;86.54
55759;BME280;41678;52.126;20.664;2022-11-20T13:04:23;99806.50;;;-0.62;86.31
55759;BME280;41678;52.126;20.664;2022-11-20T13:09:49;99809.69;;;-0.73;86.25
55759;BME280;41678;52.126;20.664;2022-11-20T13:20:51;99808.88;;;-0.70;86.06
55759;BME280;41678;52.126;20.664;2022-11-20T13:26:18;99815.03;;;-0.66;85.93
55759;BME280;41678;52.126;20.664;2022-11-20T13:37:38;99796.00;;;-0.68;86.21
55759;BME280;41678;52.126;20.664;2022-11-20T13:43:14;99792.63;;;-0.66;85.77
55759;BME280;41678;52.126;20.664;2022-11-20T13:48:44;99797.63;;;-0.72;86.12
55759;BME280;41678;52.126;20.664;2022-11-20T14:05:00;99775.19;;;-0.75;86.14
55759;BME280;41678;52.126;20.664;2022-11-20T14:10:28;99766.34;;;-0.83;85.45
55759;BME280;41678;52.126;20.664;2022-11-20T14:15:56;99768.78;;;-0.88;85.82
55759;BME280;41678;52.126;20.664;2022-11-20T14:21:29;99778.28;;;-0.88;85.72
55759;BME280;41678;52.126;20.664;2022-11-20T14:26:50;99783.47;;;-0.87;85.57
55759;BME280;41678;52.126;20.664;2022-11-20T14:32:11;99764.44;;;-0.90;85.89
55759;BME280;41678;52.126;20.664;2022-11-20T14:37:33;99759.25;;;-0.90;85.88
55759;BME280;41678;52.126;20.664;2022-11-20T14:42:56;99757.47;;;-0.91;86.12
55759;BME280;41678;52.126;20.664;2022-11-20T14:48:16;99755.66;;;-0.97;86.14
55759;BME280;41678;52.126;20.664;2022-11-20T14:53:36;99751.19;;;-1.01;86.06
55759;BME280;41678;52.126;20.664;2022-11-20T14:58:57;99747.91;;;-0.95;85.65
55759;BME280;41678;52.126;20.664;2022-11-20T15:04:17;99755.66;;;-0.97;86.14
55759;BME280;41678;52.126;20.664;2022-11-20T15:09:37;99759.84;;;-1.01;86.20
55759;BME280;41678;52.126;20.664;2022-11-20T15:14:58;99746.75;;;-1.07;85.85
55759;BME280;41678;52.126;20.664;2022-11-20T15:20:18;99757.97;;;-1.06;85.96
55759;BME280;41678;52.126;20.664;2022-11-20T15:25:39;99759.63;;;-1.08;86.28
55759;BME280;41678;52.126;20.664;2022-11-20T15:31:00;99753.50;;;-1.12;86.05
55759;BME280;41678;52.126;20.664;2022-11-20T15:36:19;99748.19;;;-1.18;86.57
55759;BME280;41678;52.126;20.664;2022-11-20T15:41:39;99735.78;;;-1.30;86.24
55759;BME280;41678;52.126;20.664;2022-11-20T15:46:59;99728.84;;;-1.33;86.06
55759;BME280;41678;52.126;20.664;2022-11-20T15:52:18;99717.47;;;-1.39;85.96
55759;BME280;41678;52.126;20.664;2022-11-20T15:57:38;99713.00;;;-1.45;86.48
55759;BME280;41678;52.126;20.664;2022-11-20T16:02:58;99718.72;;;-1.57;86.25
55759;BME280;41678;52.126;20.664;2022-11-20T16:08:17;99726.44;;;-1.57;86.77
55759;BME280;41678;52.126;20.664;2022-11-20T16:13:37;99723.88;;;-1.57;86.37
55759;BME280;41678;52.126;20.664;2022-11-20T16:19:16;99717.69;;;-1.62;86.27
55759;BME280;41678;52.126;20.664;2022-11-20T16:24:37;99719.19;;;-1.69;86.54
55759;BME280;41678;52.126;20.664;2022-11-20T16:29:57;99726.09;;;-1.69;87.18
55759;BME280;41678;52.126;20.664;2022-11-20T16:35:17;99720.66;;;-1.79;87.39
55759;BME280;41678;52.126;20.664;2022-11-20T16:40:37;99721.31;;;-1.86;87.26
55759;BME280;41678;52.126;20.664;2022-11-20T16:45:56;99719.50;;;-1.89;87.48
55759;BME280;41678;52.126;20.664;2022-11-20T16:51:16;99711.38;;;-2.01;87.49
55759;BME280;41678;52.126;20.664;2022-11-20T16:56:36;99723.91;;;-2.14;87.70
55759;BME280;41678;52.126;20.664;2022-11-20T17:01:56;99721.84;;;-2.25;87.67
55759;BME280;41678;52.126;20.664;2022-11-20T17:07:15;99714.78;;;-2.31;87.83
55759;BME280;41678;52.126;20.664;2022-11-20T17:12:35;99713.84;;;-2.33;87.72
55759;BME280;41678;52.126;20.664;2022-11-20T17:17:55;99719.66;;;-2.40;87.48
55759;BME280;41678;52.126;20.664;2022-11-20T17:23:15;99712.50;;;-2.49;87.79
55759;BME280;41678;52.126;20.664;2022-11-20T17:28:34;99708.75;;;-2.59;87.45
55759;BME280;41678;52.126;20.664;2022-11-20T17:33:55;99699.16;;;-2.63;88.20
55759;BME280;41678;52.126;20.664;2022-11-20T17:39:16;99686.59;;;-2.54;87.65
55759;BME280;41678;52.126;20.664;2022-11-20T17:44:35;99679.94;;;-2.73;88.28
55759;BME280;41678;52.126;20.664;2022-11-20T17:49:55;99680.03;;;-2.72;87.88
55759;BME280;41678;52.126;20.664;2022-11-20T17:55:15;99678.72;;;-2.85;87.68
55759;BME280;41678;52.126;20.664;2022-11-20T18:00:35;99676.97;;;-2.86;88.33
55759;BME280;41678;52.126;20.664;2022-11-20T18:05:55;99669.91;;;-2.91;88.02
55759;BME280;41678;52.126;20.664;2022-11-20T18:11:23;99668.56;;;-3.06;88.31
55759;BME280;41678;52.126;20.664;2022-11-20T18:16:46;99658.50;;;-3.00;88.26
55759;BME280;41678;52.126;20.664;2022-11-20T18:22:06;99658.91;;;-3.13;88.42
55759;BME280;41678;52.126;20.664;2022-11-20T18:27:26;99657.16;;;-3.14;88.46
55759;BME280;41678;52.126;20.664;2022-11-20T18:32:46;99653.34;;;-3.25;88.40
55759;BME280;41678;52.126;20.664;2022-11-20T18:38:06;99649.09;;;-3.23;88.38
55759;BME280;41678;52.126;20.664;2022-11-20T18:43:25;99652.47;;;-3.26;88.18
55759;BME280;41678;52.126;20.664;2022-11-20T18:49:03;99651.44;;;-3.31;88.41
55759;BME280;41678;52.126;20.664;2022-11-20T18:54:23;99648.81;;;-3.33;88.37
55759;BME280;41678;52.126;20.664;2022-11-20T18:59:43;99635.78;;;-3.37;88.13
55759;BME280;41678;52.126;20.664;2022-11-20T19:05:02;99636.59;;;-3.38;88.04
55759;BME280;41678;52.126;20.664;2022-11-20T19:10:22;99622.75;;;-3.42;88.09
55759;BME280;41678;52.126;20.664;2022-11-20T19:15:42;99610.28;;;-3.56;88.73
55759;BME280;41678;52.126;20.664;2022-11-20T19:21:12;99620.72;;;-3.51;88.54
55759;BME280;41678;52.126;20.664;2022-11-20T19:26:35;99612.78;;;-3.57;88.36
55759;BME280;41678;52.126;20.664;2022-11-20T19:31:55;99604.69;;;-3.68;88.28
55759;BME280;41678;52.126;20.664;2022-11-20T19:37:15;99601.28;;;-3.67;88.35
55759;BME280;41678;52.126;20.664;2022-11-20T19:42:35;99590.97;;;-3.68;88.40
55759;BME280;41678;52.126;20.664;2022-11-20T19:47:56;99586.41;;;-3.76;88.48
55759;BME280;41678;52.126;20.664;2022-11-20T19:53:16;99595.03;;;-3.75;88.68
55759;BME280;41678;52.126;20.664;2022-11-20T19:58:37;99593.97;;;-3.80;88.68
55759;BME280;41678;52.126;20.664;2022-11-20T20:03:58;99588.63;;;-3.87;88.44
55759;BME280;41678;52.126;20.664;2022-11-20T20:09:24;99586.16;;;-3.84;88.67
55759;BME280;41678;52.126;20.664;2022-11-20T20:14:45;99593.97;;;-3.80;88.83
55759;BME280;41678;52.126;20.664;2022-11-20T20:20:05;99590.56;;;-3.79;88.89
55759;BME280;41678;52.126;20.664;2022-11-20T20:25:25;99587.25;;;-3.77;88.69
55759;BME280;41678;52.126;20.664;2022-11-20T20:30:44;99578.75;;;-3.74;89.19
55759;BME280;41678;52.126;20.664;2022-11-20T20:36:05;99579.84;;;-3.67;89.36
55759;BME280;41678;52.126;20.664;2022-11-20T20:41:25;99579.88;;;-3.66;89.22
55759;BME280;41678;52.126;20.664;2022-11-20T20:46:45;99574.88;;;-3.63;89.12
55759;BME280;41678;52.126;20.664;2022-11-20T20:52:04;99580.28;;;-3.55;89.16
55759;BME280;41678;52.126;20.664;2022-11-20T20:57:26;99575.25;;;-3.50;89.33
55759;BME280;41678;52.126;20.664;2022-11-20T21:02:46;99577.16;;;-3.45;89.25
55759;BME280;41678;52.126;20.664;2022-11-20T21:08:06;99585.81;;;-3.43;89.21
55759;BME280;41678;52.126;20.664;2022-11-20T21:13:42;99574.75;;;-3.40;89.16
55759;BME280;41678;52.126;20.664;2022-11-20T21:19:02;99576.41;;;-3.42;89.14
55759;BME280;41678;52.126;20.664;2022-11-20T21:24:21;99565.47;;;-3.35;88.95
55759;BME280;41678;52.126;20.664;2022-11-20T21:29:41;99570.44;;;-3.41;89.21
55759;BME280;41678;52.126;20.664;2022-11-20T21:35:01;99562.63;;;-3.44;88.82
55759;BME280;41678;52.126;20.664;2022-11-20T21:40:21;99561.72;;;-3.45;89.14
55759;BME280;41678;52.126;20.664;2022-11-20T21:45:40;99584.06;;;-3.44;88.83
55759;BME280;41678;52.126;20.664;2022-11-20T21:51:05;99583.16;;;-3.46;88.97
55759;BME280;41678;52.126;20.664;2022-11-20T21:56:25;99583.13;;;-3.47;89.44
55759;BME280;41678;52.126;20.664;2022-11-20T22:01:45;99582.28;;;-3.46;89.30
55759;BME280;41678;52.126;20.664;2022-11-20T22:07:05;99581.38;;;-3.48;88.99
55759;BME280;41678;52.126;20.664;2022-11-20T22:12:24;99575.22;;;-3.52;89.17
55759;BME280;41678;52.126;20.664;2022-11-20T22:17:44;99570.00;;;-3.55;88.95
55759;BME280;41678;52.126;20.664;2022-11-20T22:23:23;99569.84;;;-3.58;88.76
55759;BME280;41678;52.126;20.664;2022-11-20T22:28:46;99589.59;;;-3.59;88.87
55759;BME280;41678;52.126;20.664;2022-11-20T22:34:09;99573.91;;;-3.65;88.73
55759;BME280;41678;52.126;20.664;2022-11-20T22:39:30;99571.22;;;-3.70;89.05
55759;BME280;41678;52.126;20.664;2022-11-20T22:44:49;99570.13;;;-3.76;88.88
55759;BME280;41678;52.126;20.664;2022-11-20T22:50:09;99572.56;;;-3.79;88.74
55759;BME280;41678;52.126;20.664;2022-11-20T22:55:28;99565.56;;;-3.84;88.83
55759;BME280;41678;52.126;20.664;2022-11-20T23:00:50;99574.84;;;-3.89;88.69
55759;BME280;41678;52.126;20.664;2022-11-20T23:06:11;99579.09;;;-3.89;88.67
55759;BME280;41678;52.126;20.664;2022-11-20T23:11:31;99578.88;;;-3.95;88.69
55759;BME280;41678;52.126;20.664;2022-11-20T23:16:51;99572.75;;;-3.99;88.33
55759;BME280;41678;52.126;20.664;2022-11-20T23:22:11;99571.63;;;-4.07;88.58
55759;BME280;41678;52.126;20.664;2022-11-20T23:27:30;99581.00;;;-4.08;88.60
55759;BME280;41678;52.126;20.664;2022-11-20T23:32:50;99578.25;;;-4.13;88.33
55759;BME280;41678;52.126;20.664;2022-11-20T23:38:10;99591.13;;;-4.13;88.78
55759;BME280;41678;52.126;20.664;2022-11-20T23:43:30;99589.38;;;-4.14;88.85
55759;BME280;41678;52.126;20.664;2022-11-20T23:48:49;99579.91;;;-4.15;89.34
55759;BME280;41678;52.126;20.664;2022-11-20T23:54:09;99586.09;;;-4.09;89.56
55759;BME280;41678;52.126;20.664;2022-11-20T23:59:29;99584.47;;;-4.07;89.40
